Latest Weather Observations for Pearce

IDW60901

Issued at 8:51 pm WST Thursday 21 October 2021 (issued every 10 minutes, with the page automatically refreshed every 10 minutes)

About weather observations | Map of Perth area stations | Latest observations for Perth area | Other Formats
Station Details ID: 009053 Name: PEARCE RAAF Lat: -31.67 Lon: 116.02 Height: 40.0 m
Data from the previous 72 hours. | See also: Recent months at Pearce
Date/Time
WST
Temp
°C
App
Temp
°C
Dew
Point
°C
Rel
Hum
%
Delta-T
°C
Wind Press
QNH
hPa
Press
MSL
hPa
Rain since
9am
mm
Dir  Spd
km/h
Gust
km/h
Spd
kts
Gust
kts
21/08:30pm 14.7 14.9 10.5 76 2.2 CALM 0 4 0 2 1021.5 1021.4 0.0
21/08:00pm 14.9 14.2 11.3 79 1.9 SE 6 9 3 5 1021.4 1021.3 0.0
21/07:30pm 14.3 13.0 11.3 82 1.6 SW 9 11 5 6 1021.0 1020.9 0.0
21/07:00pm 14.4 13.1 11.2 81 1.7 SW 9 11 5 6 1020.5 1020.4 0.0
21/06:30pm 15.1 13.5 11.7 80 1.8 SW 11 15 6 8 1020.4 1020.3 0.0
21/06:00pm 15.1 12.6 12.2 83 1.6 SSW 17 22 9 12 1020.0 1019.9 0.0
21/05:30pm 15.6 11.3 12.0 79 2.0 SSW 26 35 14 19 1019.5 1019.4 0.0
21/05:00pm 17.8 13.8 10.4 62 3.9 WSW 22 28 12 15 1018.5 1018.4 0.0
21/04:30pm 17.7 12.6 9.1 57 4.5 WSW 26 32 14 17 1018.2 1018.1 0.0
21/04:00pm 18.1 12.5 8.9 55 4.8 WSW 28 37 15 20 1017.9 1017.8 0.0
21/03:30pm 19.7 14.2 9.3 51 5.5 WSW 28 37 15 20 1017.6 1017.5 0.0
21/03:00pm 19.4 14.0 9.6 53 5.2 WSW 28 35 15 19 1017.5 1017.4 0.0
21/02:30pm 18.7 13.5 10.3 58 4.5 W 28 35 15 19 1017.4 1017.3 0.0
21/02:00pm 18.1 13.0 10.7 62 4.0 WSW 28 39 15 21 1017.4 1017.3 0.0
21/01:30pm 18.8 13.0 9.6 55 4.9 WSW 30 39 16 21 1017.2 1017.1 0.0
21/01:00pm 18.5 14.2 13.1 71 3.0 SSW 28 37 15 20 1017.2 1017.1 0.0
21/12:30pm 20.1 14.7 10.8 55 5.1 WSW 30 39 16 21 1017.0 1016.9 0.0
21/12:00pm 18.9 13.9 9.7 55 4.9 WSW 26 37 14 20 1016.9 1016.8 0.0
21/11:30am 19.7 14.2 9.3 51 5.5 WSW 28 37 15 20 1016.9 1016.8 0.0
21/11:00am 20.3 15.7 11.0 55 5.1 WSW 26 35 14 19 1017.1 1017.0 0.0
21/10:30am 19.2 14.0 11.7 62 4.1 SW 30 41 16 22 1017.2 1017.1 0.0
21/10:00am 17.9 13.2 12.1 69 3.2 WSW 28 39 15 21 1017.1 1017.0 0.0
21/09:30am 17.6 13.5 11.6 68 3.3 WSW 24 32 13 17 1016.9 1016.8 0.0
21/09:00am 16.9 15.0 13.0 78 2.2 W 15 26 8 14 1016.9 1016.8 8.4
21/08:30am 16.3 14.3 13.8 85 1.4 WNW 17 26 9 14 1016.8 1016.7 8.4
21/08:00am 16.3 15.3 13.4 83 1.6 NW 11 22 6 12 1016.3 1016.2 8.4
21/07:30am 15.8 15.2 13.5 86 1.3 WNW 9 13 5 7 1016.2 1016.1 8.4
21/07:00am 14.8 14.4 13.0 89 1.0 W 7 9 4 5 1015.8 1015.7 8.2
21/06:30am 14.0 13.0 12.2 89 1.0 N 9 11 5 6 1015.3 1015.2 8.2
21/06:00am 13.9 12.5 12.1 89 1.0 W 11 13 6 7 1015.0 1014.9 8.2
21/05:30am 13.1 11.2 11.7 91 0.7 NNW 13 17 7 9 1014.3 1014.3 8.2
21/05:00am 13.4 13.8 11.3 87 1.1 CALM 0 0 0 0 1014.0 1014.0 8.2
21/04:30am 12.9 12.3 11.6 92 0.7 NNW 6 7 3 4 1014.0 1014.0 8.2
21/04:00am 12.6 11.7 11.2 91 0.7 WNW 7 9 4 5 1013.7 1013.7 8.2
21/03:30am 12.9 11.7 11.6 92 0.7 W 9 13 5 7 1013.6 1013.6 8.2
21/03:00am 13.6 12.7 12.5 93 0.6 NW 9 13 5 7 1013.4 1013.4 8.2
21/02:30am 13.9 13.4 12.6 92 0.7 NW 7 9 4 5 1013.4 1013.4 8.2
21/02:00am 14.4 13.7 13.1 92 0.7 WNW 9 9 5 5 1013.4 1013.4 8.2
21/01:30am 14.7 14.4 13.4 92 0.7 W 7 11 4 6 1013.5 1013.5 8.2
21/01:00am 15.0 14.2 13.9 93 0.6 WNW 11 13 6 7 1013.6 1013.6 8.2
21/12:30am 14.8 14.3 13.8 94 0.6 W 9 13 5 7 1013.6 1013.6 8.2
21/12:00am 14.6 14.0 13.6 94 0.6 NNW 9 13 5 7 1013.7 1013.7 8.0
 
Date/Time
WST
Temp
°C
App
Temp
°C
Dew
Point
°C
Rel
Hum
%
Delta-T
°C
Wind Press
QNH
hPa
Press
MSL
hPa
Rain since
9am
mm
Dir  Spd
km/h
Gust
km/h
Spd
kts
Gust
kts
20/11:30pm 14.7 14.1 13.6 93 0.6 WNW 9 11 5 6 1013.8 1013.8 8.0
20/11:00pm 14.6 12.5 13.5 93 0.6 WSW 17 24 9 13 1014.0 1014.0 8.0
20/10:51pm 14.6 11.8 13.3 92 0.7 WSW 20 28 11 15 1014.1 1014.1 8.0
20/10:50pm 14.6 11.8 13.3 92 0.7 WSW 20 28 11 15 1014.1 1014.1 8.0
20/10:30pm 15.6 14.6 14.6 94 0.6 WSW 13 30 7 16 1014.0 1014.0 8.0
20/10:29pm 15.7 15.1 14.7 94 0.6 W 11 20 6 11 1013.9 1013.9 7.6
20/10:18pm 15.7 15.1 14.7 94 0.6 W 11 13 6 7 1013.8 1013.8 6.6
20/10:17pm 15.7 15.1 14.7 94 0.6 W 11 13 6 7 1013.9 1013.9 6.0
20/10:01pm 15.5 14.9 14.5 94 0.6 WSW 11 17 6 9 1013.8 1013.8 5.4
20/10:00pm 15.5 14.9 14.5 94 0.6 WSW 11 17 6 9 1013.8 1013.8 5.4
20/09:32pm 15.6 15.8 14.6 94 0.6 W 7 9 4 5 1013.9 1013.9 4.0
20/09:30pm 15.6 15.8 14.6 94 0.6 W 7 9 4 5 1013.9 1013.9 3.8
20/09:05pm 15.5 15.2 14.5 94 0.6 W 9 13 5 7 1013.9 1013.9 3.4
20/09:00pm 15.5 15.2 14.5 94 0.6 W 9 13 5 7 1013.9 1013.9 3.4
20/08:34pm 15.5 14.8 14.4 93 0.6 WSW 11 15 6 8 1013.8 1013.8 3.0
20/08:30pm 15.5 14.4 14.4 93 0.6 WSW 13 19 7 10 1013.8 1013.8 3.0
20/08:16pm 15.5 13.3 14.4 93 0.6 WSW 19 24 10 13 1013.8 1013.8 2.6
20/08:00pm 15.6 13.2 14.3 92 0.7 WSW 20 26 11 14 1013.6 1013.6 2.2
20/07:55pm 15.7 13.3 14.4 92 0.7 WSW 20 26 11 14 1013.5 1013.5 2.2
20/07:32pm 16.4 13.9 14.2 87 1.3 WNW 20 37 11 20 1013.1 1013.1 0.8
20/07:30pm 16.4 13.9 14.2 87 1.3 NW 20 26 11 14 1013.1 1013.1 0.4
20/07:00pm 16.6 13.8 14.2 86 1.4 WNW 22 32 12 17 1012.9 1012.9 0.4
20/06:30pm 16.7 13.5 14.2 85 1.4 WNW 24 37 13 20 1012.8 1012.8 0.4
20/06:00pm 17.8 14.4 13.7 77 2.3 WNW 24 37 13 20 1012.6 1012.6 0.0
20/05:41pm 17.5 13.8 13.8 79 2.1 WNW 26 37 14 20 1012.5 1012.5 0.0
20/05:30pm 17.5 13.8 14.0 80 2.0 WNW 26 37 14 20 1012.5 1012.5 0.0
20/05:00pm 17.6 14.9 14.7 83 1.7 WNW 22 32 12 17 1012.3 1012.3 0.0
20/04:51pm 16.8 12.9 14.4 86 1.4 WNW 28 39 15 21 1012.2 1012.2 0.0
20/04:42pm 16.6 10.8 13.9 84 1.5 WNW 37 50 20 27 1012.3 1012.3 0.0
20/04:30pm 18.2 13.2 13.5 74 2.7 WNW 32 44 17 24 1012.0 1012.0 0.0
20/04:00pm 17.6 13.0 15.0 85 1.5 WNW 33 48 18 26 1012.1 1012.1 0.0
20/03:30pm 17.6 13.1 14.9 84 1.6 WNW 32 44 17 24 1012.0 1012.0 0.0
20/03:24pm 18.0 14.4 15.3 84 1.6 WNW 28 43 15 23 1012.1 1012.1 0.0
20/03:06pm 16.6 11.1 13.7 83 1.6 WNW 35 52 19 28 1012.1 1012.1 0.0
20/03:04pm 17.1 11.9 13.4 79 2.1 WNW 33 52 18 28 1012.2 1012.2 0.0
20/03:00pm 18.1 13.0 13.6 75 2.6 WNW 33 46 18 25 1012.0 1012.0 0.0
20/02:30pm 17.8 12.4 13.9 78 2.2 WNW 35 56 19 30 1012.0 1012.0 0.0
20/02:22pm 18.5 12.6 12.3 67 3.4 WNW 35 56 19 30 1011.9 1011.9 0.0
20/02:00pm 18.9 13.3 12.2 65 3.7 W 33 48 18 26 1012.0 1012.0 0.0
20/01:46pm 19.3 13.1 11.3 60 4.4 WNW 35 54 19 29 1012.0 1012.0 0.0
20/01:30pm 19.4 13.1 11.2 59 4.5 WNW 35 50 19 27 1012.0 1012.0 0.0
20/01:00pm 19.4 12.8 11.2 59 4.5 W 37 50 20 27 1011.9 1011.9 0.0
20/12:36pm 18.4 13.6 12.8 70 3.1 WNW 30 48 16 26 1011.9 1011.9 0.0
20/12:30pm 17.1 10.8 12.4 74 2.6 WNW 37 50 20 27 1012.1 1012.1 0.0
20/12:11pm 18.9 13.6 11.2 61 4.2 WNW 30 50 16 27 1011.9 1011.9 0.0
20/12:00pm 18.8 13.9 11.4 62 4.1 WNW 28 39 15 21 1012.0 1012.0 0.0
20/11:51am 18.3 12.8 11.8 66 3.6 WNW 32 50 17 27 1012.1 1012.1 0.0
20/11:30am 18.6 12.4 10.2 58 4.5 WNW 33 44 18 24 1011.9 1011.9 0.0
20/11:07am 19.1 12.9 9.9 55 4.9 WNW 33 52 18 28 1011.5 1011.5 0.0
20/11:00am 19.2 12.8 9.4 53 5.2 WNW 33 43 18 23 1011.7 1011.7 0.0
20/10:30am 19.0 12.5 8.9 52 5.3 WNW 33 44 18 24 1012.1 1012.1 0.0
20/10:00am 17.5 11.7 10.9 65 3.6 W 32 41 17 22 1012.2 1012.2 0.0
20/09:30am 17.2 10.4 9.4 60 4.1 W 35 46 19 25 1012.0 1012.0 0.0
20/09:00am 17.4 11.1 9.6 60 4.1 W 33 46 18 25 1011.6 1011.6 29.2
20/08:30am 17.3 12.8 10.2 63 3.8 W 24 32 13 17 1011.3 1011.3 29.2
20/08:00am 16.1 11.3 10.2 68 3.1 W 26 35 14 19 1011.1 1011.1 29.2
20/07:30am 14.9 8.8 10.3 74 2.4 W 33 46 18 25 1010.8 1010.8 29.2
20/07:17am 15.6 10.3 9.7 68 3.1 W 28 41 15 22 1010.6 1010.6 29.2
20/07:00am 15.2 11.7 8.7 65 3.3 WNW 17 22 9 12 1010.3 1010.3 29.2
20/06:30am 14.9 11.0 9.5 70 2.8 W 20 26 11 14 1010.0 1009.9 29.2
20/06:00am 14.4 10.7 9.6 73 2.5 W 19 24 10 13 1009.5 1009.4 29.2
20/05:30am 14.6 10.6 9.0 69 2.9 W 20 32 11 17 1009.0 1008.9 29.2
20/05:00am 14.2 10.4 9.8 75 2.3 W 20 28 11 15 1009.1 1009.0 29.2
20/04:30am 14.1 9.8 9.3 73 2.5 W 22 32 12 17 1008.9 1008.8 29.2
20/04:00am 14.1 8.3 10.9 81 1.7 WSW 32 48 17 26 1008.8 1008.7 29.2
20/03:57am 14.3 9.3 10.9 80 1.8 W 28 48 15 26 1008.8 1008.7 29.2
20/03:34am 13.3 10.5 11.5 89 1.0 WSW 17 24 9 13 1008.4 1008.3 28.8
20/03:30am 13.3 10.1 11.4 88 1.0 WSW 19 24 10 13 1008.3 1008.2 28.8
20/03:18am 13.4 8.1 11.1 86 1.2 WSW 30 39 16 21 1008.4 1008.3 28.8
20/03:00am 14.1 10.4 10.3 78 2.0 W 20 32 11 17 1008.1 1008.0 28.6
20/02:30am 13.6 11.3 11.7 88 1.0 W 15 20 8 11 1008.0 1007.9 28.6
20/02:00am 13.8 9.8 11.8 88 1.1 WSW 24 35 13 19 1008.0 1007.9 28.6
20/01:30am 13.7 9.7 11.8 88 1.0 WSW 24 35 13 19 1007.8 1007.7 28.6
20/01:11am 13.8 9.0 11.7 87 1.1 W 28 52 15 28 1007.8 1007.7 28.4
20/01:10am 13.9 9.6 11.9 88 1.1 W 26 39 14 21 1007.8 1007.7 28.4
20/01:00am 14.2 11.2 12.1 87 1.1 WSW 19 26 10 14 1007.5 1007.4 27.2
20/12:30am 14.4 10.5 12.1 86 1.2 WSW 24 32 13 17 1007.2 1007.1 27.2
20/12:22am 14.2 11.2 12.4 89 1.0 W 20 30 11 16 1007.1 1007.0 27.2
20/12:09am 14.3 10.6 12.7 90 0.9 WSW 24 32 13 17 1007.2 1007.1 27.2
20/12:00am 14.4 9.5 12.4 88 1.1 WSW 30 39 16 21 1007.1 1007.0 27.0
 
Date/Time
WST
Temp
°C
App
Temp
°C
Dew
Point
°C
Rel
Hum
%
Delta-T
°C
Wind Press
QNH
hPa
Press
MSL
hPa
Rain since
9am
mm
Dir  Spd
km/h
Gust
km/h
Spd
kts
Gust
kts
19/11:54pm 14.4 9.0 12.3 87 1.1 WSW 32 44 17 24 1007.0 1006.9 27.0
19/11:42pm 14.3 9.7 12.3 88 1.1 WSW 28 50 15 27 1006.7 1006.6 27.0
19/11:34pm 14.4 10.7 12.8 90 0.9 WSW 24 32 13 17 1006.7 1006.6 26.6
19/11:33pm 14.5 10.5 12.9 90 0.9 WSW 26 35 14 19 1006.7 1006.6 25.8
19/11:30pm 14.6 10.2 13.0 90 0.9 WSW 28 41 15 22 1006.5 1006.4 24.8
19/11:15pm 14.4 10.0 12.8 90 0.9 WSW 28 37 15 20 1006.5 1006.4 24.4
19/11:14pm 14.4 9.6 12.8 90 0.9 WSW 30 41 16 22 1006.6 1006.5 24.0
19/11:00pm 14.2 7.4 12.1 87 1.1 WSW 39 67 21 36 1006.1 1006.0 22.8
19/10:59pm 14.3 8.0 12.2 87 1.1 WSW 37 67 20 36 1006.1 1006.0 22.8
19/10:42pm 15.1 10.1 13.3 89 1.0 WSW 32 50 17 27 1005.6 1005.5 22.8
19/10:41pm 15.1 10.1 13.5 90 0.9 WSW 32 44 17 24 1005.6 1005.5 22.6
19/10:31pm 14.9 10.0 13.8 93 0.6 WSW 32 50 17 27 1005.5 1005.4 22.6
19/10:30pm 14.8 9.9 13.7 93 0.6 WSW 32 46 17 25 1005.4 1005.3 22.6
19/10:19pm 15.0 9.2 13.9 93 0.6 W 37 57 20 31 1005.1 1005.0 21.4
19/10:12pm 15.0 10.1 13.7 92 0.7 WSW 32 46 17 25 1005.1 1005.0 20.0
19/10:00pm 14.9 9.3 13.4 91 0.8 WSW 35 54 19 29 1004.8 1004.7 18.8
19/09:59pm 15.0 9.5 13.5 91 0.8 WSW 35 54 19 29 1004.8 1004.7 18.8
19/09:44pm 14.9 9.8 13.8 93 0.6 WSW 33 61 18 33 1004.6 1004.5 18.8
19/09:42pm 14.9 9.8 13.8 93 0.6 WSW 33 61 18 33 1004.5 1004.4 18.4
19/09:41pm 14.8 9.9 13.7 93 0.6 WSW 32 52 17 28 1004.7 1004.6 18.4
19/09:30pm 14.9 10.4 13.9 94 0.6 WSW 30 41 16 22 1004.1 1004.0 16.4
19/09:14pm 14.7 9.8 13.6 93 0.6 WSW 32 50 17 27 1003.9 1003.8 14.8
19/09:07pm 14.7 9.8 13.6 93 0.6 W 32 41 17 22 1003.7 1003.6 12.6
19/09:03pm 15.0 9.6 13.9 93 0.6 W 35 54 19 29 1003.5 1003.4 12.2
19/09:00pm 15.1 9.3 14.0 93 0.6 W 37 54 20 29 1003.4 1003.3 12.2
19/08:54pm 15.3 9.6 14.2 93 0.6 WNW 37 61 20 33 1003.2 1003.1 11.8
19/08:51pm 15.5 10.3 14.4 93 0.6 WNW 35 61 19 33 1003.1 1003.0 11.6
19/08:49pm 15.4 10.1 14.3 93 0.6 WNW 35 61 19 33 1003.0 1002.9 11.4
19/08:45pm 15.5 10.6 14.4 93 0.6 WNW 33 46 18 25 1002.8 1002.7 11.0
19/08:31pm 15.4 9.7 14.3 93 0.6 WNW 37 50 20 27 1002.7 1002.6 10.8
19/08:30pm 15.4 9.7 14.3 93 0.6 WNW 37 50 20 27 1002.7 1002.6 10.6
19/08:24pm 15.5 10.9 14.5 94 0.6 WNW 32 50 17 27 1002.7 1002.6 10.6
19/08:11pm 14.9 10.1 13.9 94 0.6 NW 32 43 17 23 1002.4 1002.3 10.0
19/08:10pm 14.9 10.1 13.9 94 0.6 NW 32 50 17 27 1002.4 1002.3 9.6
19/08:00pm 14.5 8.6 13.5 94 0.6 NW 37 48 20 26 1002.3 1002.2 8.8
19/07:49pm 14.2 7.8 13.2 94 0.6 NW 39 54 21 29 1002.2 1002.1 8.8
19/07:35pm 13.8 8.1 12.9 94 0.5 NNW 35 50 19 27 1001.8 1001.7 8.4
19/07:30pm 13.7 7.5 12.6 93 0.6 NNW 37 50 20 27 1001.6 1001.5 8.4
19/07:11pm 13.8 7.5 12.4 91 0.8 NNW 37 50 20 27 1001.5 1001.4 5.8
19/07:00pm 13.9 6.5 12.3 90 0.9 NNW 43 54 23 29 1001.3 1001.2 4.8
19/06:33pm 14.9 8.1 12.0 83 1.6 NW 39 57 21 31 1001.4 1001.3 3.4
19/06:30pm 15.0 7.9 12.1 83 1.6 NW 41 57 22 31 1001.4 1001.3 3.4
19/06:16pm 15.6 8.3 11.6 77 2.2 NW 41 61 22 33 1001.3 1001.2 2.8
19/06:00pm 15.9 9.4 11.7 76 2.3 NNW 37 48 20 26 1001.0 1000.9 2.6
19/05:30pm 17.2 10.0 10.6 65 3.5 NW 39 54 21 29 1000.7 1000.6 2.6
19/05:12pm 17.7 9.1 10.3 62 3.9 NW 46 67 25 36 1000.3 1000.2 2.6
19/05:00pm 17.9 9.2 11.2 65 3.7 NW 48 61 26 33 1000.5 1000.4 2.6
19/04:44pm 17.7 9.9 11.0 65 3.6 NW 43 61 23 33 1000.4 1000.3 2.6
19/04:30pm 17.2 11.3 12.5 74 2.6 NW 35 52 19 28 1000.6 1000.5 2.6
19/04:02pm 16.8 9.9 11.5 71 2.9 NW 39 59 21 32 1000.5 1000.4 2.6
19/04:00pm 17.3 10.0 11.6 69 3.1 NW 41 52 22 28 1000.3 1000.2 2.6
19/03:35pm 15.9 5.7 12.1 78 2.1 NW 57 89 31 48 1000.2 1000.1 2.4
19/03:30pm 16.5 5.6 9.4 63 3.7 NW 57 89 31 48 1000.0 999.9 2.4
19/03:07pm 19.8 11.0 9.4 51 5.5 NW 46 70 25 38 999.8 999.7 2.4
19/03:00pm 20.7 12.3 11.1 54 5.3 NW 46 63 25 34 1000.0 999.9 2.4
19/02:30pm 19.7 11.6 10.9 57 4.8 NW 44 63 24 34 999.7 999.6 2.4
19/02:12pm 21.7 13.2 10.8 50 6.0 NW 46 65 25 35 999.5 999.4 2.4
19/02:00pm 20.8 12.9 11.4 55 5.2 NW 44 57 24 31 999.6 999.5 2.4
19/01:30pm 21.0 13.2 11.3 54 5.4 NW 43 63 23 34 999.3 999.2 2.2
19/01:10pm 18.5 9.7 10.8 61 4.2 WNW 48 70 26 38 999.3 999.2 2.2
19/01:00pm 20.0 12.1 12.7 63 4.1 WNW 46 61 25 33 999.5 999.4 2.2
19/12:41pm 20.6 13.0 13.6 64 4.0 NW 46 65 25 35 999.0 998.9 2.2
19/12:30pm 19.1 13.1 14.4 74 2.7 NW 39 56 21 30 999.2 999.1 2.2
19/12:28pm 18.8 12.6 13.9 73 2.8 NW 39 56 21 30 999.2 999.1 2.2
19/12:00pm 18.8 14.0 15.7 82 1.8 NNW 35 43 19 23 999.4 999.3 2.2
19/11:34am 17.3 12.4 15.3 88 1.2 N 35 46 19 25 999.2 999.1 2.2
19/11:30am 17.1 11.7 15.1 88 1.2 N 37 46 20 25 999.4 999.3 2.2
19/11:22am 16.6 11.7 14.4 87 1.3 N 33 43 18 23 999.1 999.0 2.2
19/11:00am 16.9 12.2 14.2 84 1.6 N 32 43 17 23 999.1 999.0 1.6
19/10:30am 16.2 12.5 14.0 87 1.2 NNE 26 37 14 20 998.8 998.7 1.6
19/10:00am 16.1 12.2 14.5 90 0.9 NNE 28 41 15 22 999.9 999.8 1.4
19/09:30am 16.5 12.8 14.9 90 0.9 N 28 37 15 20 1000.3 1000.2 0.2
19/09:00am 15.9 13.7 14.9 94 0.6 N 20 26 11 14 1000.1 1000.0 12.0
19/08:30am 15.7 14.7 14.7 94 0.6 NW 13 19 7 10 1000.9 1000.8 11.0
19/08:18am 15.8 14.9 14.8 94 0.6 NNW 13 17 7 9 1001.1 1001.0 8.6
19/08:00am 15.9 14.2 14.8 93 0.6 N 17 22 9 12 1000.7 1000.6 6.6
19/07:49am 15.9 14.2 14.8 93 0.6 NNW 17 22 9 12 1000.5 1000.4 6.2
19/07:43am 15.8 14.5 14.7 93 0.6 NW 15 20 8 11 1000.5 1000.4 5.6
19/07:30am 15.7 13.6 14.6 93 0.6 NW 19 24 10 13 1000.3 1000.2 5.0
19/07:20am 15.6 13.4 14.3 92 0.7 W 19 24 10 13 1000.3 1000.2 3.4
19/07:06am 15.9 12.0 14.4 91 0.9 N 28 39 15 21 1000.1 1000.0 2.2
19/07:00am 16.0 12.1 14.4 90 0.9 N 28 41 15 22 999.9 999.8 2.2
19/06:45am 16.0 12.1 14.4 90 0.9 N 28 41 15 22 999.1 999.0 1.8
19/06:30am 16.0 11.3 14.2 89 1.0 N 32 41 17 22 999.5 999.4 1.6
19/06:27am 15.9 10.9 14.1 89 1.0 N 33 52 18 28 999.5 999.4 1.6
19/06:00am 15.7 11.2 13.9 89 1.0 N 30 44 16 24 999.1 999.0 1.4
19/05:30am 15.5 10.4 13.2 86 1.3 N 32 43 17 23 999.4 999.3 0.8
19/05:00am 17.6 10.5 12.1 70 3.1 N 41 65 22 35 999.4 999.3 0.8
19/04:58am 17.8 11.4 12.0 69 3.2 NNE 37 65 20 35 999.4 999.3 0.8
19/04:56am 18.5 12.9 12.0 66 3.6 NNE 33 65 18 35 999.0 998.9 0.8
19/04:54am 18.4 13.8 12.2 67 3.4 NNE 28 57 15 31 998.9 998.8 0.8
19/04:53am 18.2 13.9 12.0 67 3.4 NNE 26 57 14 31 998.9 998.8 0.8
19/04:30am 16.9 12.0 11.4 70 3.0 NE 28 37 15 20 998.5 998.4 0.8
19/04:00am 16.2 13.1 11.6 74 2.5 ENE 19 30 10 16 998.9 998.8 0.8
19/03:30am 16.1 13.7 12.5 79 2.0 ENE 17 22 9 12 999.5 999.4 0.8
19/03:00am 15.8 14.9 12.7 82 1.7 ENE 9 17 5 9 1000.2 1000.1 0.8
19/02:30am 15.7 13.4 13.0 84 1.5 ENE 17 20 9 11 1000.9 1000.8 0.8
19/02:00am 15.8 13.2 13.1 84 1.5 ENE 19 24 10 13 1001.6 1001.5 0.8
19/01:30am 16.1 15.5 13.4 84 1.5 ENE 9 17 5 9 1002.9 1002.8 0.6
19/01:00am 16.2 15.8 13.1 82 1.7 ENE 7 13 4 7 1003.5 1003.4 0.2
19/12:30am 16.7 15.6 13.0 79 2.1 E 11 15 6 8 1003.6 1003.5 0.0
19/12:00am 16.3 15.6 13.2 82 1.7 N 9 13 5 7 1004.7 1004.6 0.0
 
Date/Time
WST
Temp
°C
App
Temp
°C
Dew
Point
°C
Rel
Hum
%
Delta-T
°C
Wind Press
QNH
hPa
Press
MSL
hPa
Rain since
9am
mm
Dir  Spd
km/h
Gust
km/h
Spd
kts
Gust
kts
18/11:30pm 17.0 15.4 12.9 77 2.3 ESE 13 19 7 10 1003.9 1003.8 0.0
18/11:25pm 17.2 15.6 12.7 75 2.5 E 13 19 7 10 1003.6 1003.5 0.0
18/11:00pm 16.1 16.1 12.3 78 2.1 SE 4 6 2 3 1005.6 1005.5 0.0
18/10:30pm 15.7 15.7 12.3 80 1.9 SE 4 6 2 3 1005.9 1005.8 0.0
18/10:00pm 15.9 15.4 12.1 78 2.1 SE 6 6 3 3 1005.7 1005.6 0.0
18/09:30pm 17.0 16.4 11.7 71 2.9 SE 6 7 3 4 1005.7 1005.6 0.0
18/09:00pm 17.0 17.5 11.5 70 3.0 CALM 0 0 0 0 1006.2 1006.1 0.0

Latest Capital City Observations: Canberra | Sydney | Melbourne | Brisbane | Adelaide | Perth | Hobart | Darwin

Other formats

Comma delimited format used in spreadsheet applications
http://www.bom.gov.au/fwo/IDW60901/IDW60901.94612.axf

JavaScript Object Notation format (JSON) in row-major order
http://www.bom.gov.au/fwo/IDW60901/IDW60901.94612.json

Data quality

Most of these data are generated automatically and are frequently updated. Quality checks on data are not normally performed. It is possible for incorrect values to appear. Refer to information at About Latest Weather Observations and please check the disclaimer before using these data.